Eastman, Canada
Current Conditions -  °F | °C
As of 10:15 PM on Saturday 25 Oct 2014 (Local Time) from KEFK Reporting Station
Broken Clouds Broken Clouds  
Wind Chill:   Ceiling: 5000
Heat Index:   Visibility: 10mi
Dew Point:   Wind: 9mph
Humidity: 94%   Direction: 210°SSW
Pressure: 29.45"   Gusts: NA
Location:  45.3°N, 72.32°W
Report Text: KEFK 260215Z AUTO 21008KT 10SM SCT038 SCT045 BKN050 08/08 A2945 RMK AO2 T00840075
Loading
Personal Weather Stations






























Interactive Weather Map
Tropical Storm Tracking
New forecast layout! Learn more

10-Day Weather Forecast

Advertisements
Track Severe Weather on mobile